Time;durP1;ratioP1;P1;durP2;ratioP2;P2;SDS_P1;SDS_P2;PMS_P1;PMS_P2;Temp;Humidity;BMP_temperature;BMP_pressure;BME280_temperature;BME280_humidity;BME280_pressure;Samples;Min_cycle;Max_cycle;Signal;HPM_P1;HPM_P2
2022/02/23 00:01:31;;;;;;;2.70;2.50;;;6.10;93.80;;;;;;5041263;28;20219;-72
2022/02/23 00:03:58;;;;;;;2.20;2.05;;;6.10;94.10;;;;;;5039989;28;20337;-74
2022/02/23 00:06:26;;;;;;;2.45;2.35;;;6.00;94.20;;;;;;5041885;28;20229;-72
2022/02/23 00:08:54;;;;;;;2.20;2.10;;;6.00;94.40;;;;;;5039799;28;20295;-73
2022/02/23 00:11:21;;;;;;;2.72;2.33;;;6.00;94.50;;;;;;5036969;28;20870;-73
2022/02/23 00:13:49;;;;;;;3.13;2.92;;;6.00;94.60;;;;;;5045877;28;20658;-74
2022/02/23 00:16:16;;;;;;;2.75;2.55;;;5.90;94.80;;;;;;5043131;28;20234;-72
2022/02/23 00:18:43;;;;;;;2.95;2.75;;;6.00;94.80;;;;;;5042391;28;20511;-72
2022/02/23 00:21:10;;;;;;;2.97;2.78;;;6.00;94.60;;;;;;5043126;28;20770;-73
2022/02/23 00:23:37;;;;;;;3.42;2.50;;;6.00;94.40;;;;;;5041450;28;20210;-73
2022/02/23 00:26:06;;;;;;;3.10;2.70;;;5.90;94.70;;;;;;5037310;28;20227;-72
2022/02/23 00:28:33;;;;;;;2.80;2.60;;;5.80;94.70;;;;;;5044303;28;20581;-72
2022/02/23 00:31:00;;;;;;;2.60;2.42;;;5.80;94.80;;;;;;5039814;28;20251;-73
2022/02/23 00:33:28;;;;;;;3.17;2.92;;;5.80;94.80;;;;;;5045596;28;20673;-72
2022/02/23 00:35:55;;;;;;;3.13;2.92;;;5.70;94.90;;;;;;5040695;28;20214;-72
2022/02/23 00:38:22;;;;;;;2.58;2.38;;;5.70;95.10;;;;;;5043288;28;20222;-72
2022/02/23 00:40:51;;;;;;;2.72;2.53;;;5.70;95.20;;;;;;5042764;28;20223;-72
2022/02/23 00:43:20;;;;;;;2.75;2.55;;;5.60;95.20;;;;;;5044622;28;20248;-74
2022/02/23 00:45:47;;;;;;;2.60;2.40;;;5.60;95.20;;;;;;5036843;28;20231;-74
2022/02/23 00:48:14;;;;;;;2.83;2.60;;;5.60;95.30;;;;;;5043475;28;20191;-72
2022/02/23 00:50:41;;;;;;;2.40;2.30;;;5.60;95.20;;;;;;5042849;28;20304;-72
2022/02/23 00:53:08;;;;;;;2.85;2.65;;;5.60;95.20;;;;;;5055251;28;20194;-73
2022/02/23 00:55:35;;;;;;;2.67;2.58;;;5.60;95.30;;;;;;5059396;28;20227;-73
2022/02/23 00:58:02;;;;;;;2.75;2.55;;;5.60;95.60;;;;;;5058395;28;20214;-73
2022/02/23 01:00:31;;;;;;;3.08;2.88;;;5.50;95.80;;;;;;5050226;28;20210;-73
2022/02/23 01:02:58;;;;;;;2.95;2.75;;;5.50;95.70;;;;;;5042307;28;20199;-72
2022/02/23 01:05:25;;;;;;;2.97;2.72;;;5.40;95.50;;;;;;5043297;28;20276;-72
2022/02/23 01:07:52;;;;;;;3.33;2.70;;;5.40;95.80;;;;;;5038524;28;20195;-72
2022/02/23 01:10:20;;;;;;;2.60;2.40;;;5.40;95.80;;;;;;5041090;28;20207;-73
2022/02/23 01:12:47;;;;;;;3.05;2.85;;;5.30;95.90;;;;;;5042893;28;20203;-72
2022/02/23 01:15:15;;;;;;;2.75;2.55;;;5.40;96.00;;;;;;5043913;28;20321;-72
2022/02/23 01:17:43;;;;;;;2.50;2.40;;;5.40;96.10;;;;;;5039368;28;20787;-72
2022/02/23 01:20:11;;;;;;;2.88;2.70;;;5.40;96.10;;;;;;5041308;28;20610;-71
2022/02/23 01:22:39;;;;;;;2.80;2.60;;;5.50;96.30;;;;;;5037915;28;20214;-72
2022/02/23 01:25:07;;;;;;;2.80;2.60;;;5.50;96.50;;;;;;5042127;28;20234;-72
2022/02/23 01:27:34;;;;;;;2.50;2.30;;;5.60;96.50;;;;;;5041646;28;20705;-73
2022/02/23 01:30:01;;;;;;;2.20;2.10;;;5.60;96.60;;;;;;5040606;28;20203;-72
2022/02/23 01:32:28;;;;;;;2.40;2.30;;;5.60;96.50;;;;;;5040138;28;20234;-73
2022/02/23 01:34:57;;;;;;;2.65;2.50;;;5.60;96.50;;;;;;5042190;28;20219;-72
2022/02/23 01:37:24;;;;;;;2.25;2.15;;;5.60;96.60;;;;;;5043663;28;20219;-73
2022/02/23 01:39:51;;;;;;;2.08;1.98;;;5.60;96.50;;;;;;5040051;28;21176;-72
2022/02/23 01:42:18;;;;;;;2.00;1.90;;;5.60;96.60;;;;;;5041048;28;20288;-72
2022/02/23 01:44:45;;;;;;;1.92;1.83;;;5.60;96.50;;;;;;5042515;28;20207;-73
2022/02/23 01:47:12;;;;;;;2.50;2.30;;;5.60;96.30;;;;;;5041787;28;20298;-72
2022/02/23 01:49:39;;;;;;;1.95;1.85;;;5.60;96.10;;;;;;5040248;28;20574;-72
2022/02/23 01:52:08;;;;;;;2.42;2.22;;;5.60;96.20;;;;;;5040051;28;21020;-73
2022/02/23 01:54:35;;;;;;;2.28;2.17;;;5.50;96.40;;;;;;5040963;28;20195;-72
2022/02/23 01:57:02;;;;;;;2.17;2.03;;;5.40;96.60;;;;;;5041526;28;20701;-72
2022/02/23 01:59:29;;;;;;;2.35;2.25;;;5.40;96.70;;;;;;5041163;28;20211;-72
2022/02/23 02:01:56;;;;;;;2.50;2.40;;;5.30;96.70;;;;;;5038096;28;20215;-72
2022/02/23 02:04:23;;;;;;;2.95;2.70;;;5.30;96.80;;;;;;5041083;28;20202;-72
2022/02/23 02:06:51;;;;;;;2.58;2.38;;;5.30;96.90;;;;;;5040932;28;20276;-72
2022/02/23 02:09:20;;;;;;;2.85;2.65;;;5.20;97.00;;;;;;5040046;28;20559;-72
2022/02/23 02:11:47;;;;;;;2.70;2.50;;;5.20;97.10;;;;;;5039628;28;20223;-73
2022/02/23 02:14:14;;;;;;;2.80;2.60;;;5.10;97.30;;;;;;5041810;28;20492;-73
2022/02/23 02:16:41;;;;;;;2.90;2.70;;;5.10;97.40;;;;;;5040922;28;20219;-72
2022/02/23 02:19:08;;;;;;;2.88;2.67;;;5.00;97.60;;;;;;5041311;28;20366;-71
2022/02/23 02:21:56;;;;;;;2.65;2.45;;;5.00;97.70;;;;;;5037374;28;20600;-72
2022/02/23 02:24:25;;;;;;;2.70;2.50;;;5.00;97.70;;;;;;5043285;28;20565;-72
2022/02/23 02:26:53;;;;;;;3.00;2.80;;;5.00;97.60;;;;;;5044359;28;20238;-72
2022/02/23 02:29:20;;;;;;;2.90;2.70;;;5.00;97.60;;;;;;5047318;28;20499;-72
2022/02/23 02:31:48;;;;;;;3.17;2.95;;;5.00;97.80;;;;;;5045112;28;20236;-72
2022/02/23 02:34:15;;;;;;;2.53;2.42;;;5.00;97.90;;;;;;5044622;28;20200;-72
2022/02/23 02:36:43;;;;;;;3.03;2.72;;;5.00;97.90;;;;;;5043617;28;20226;-72
2022/02/23 02:39:11;;;;;;;2.72;2.58;;;4.90;97.90;;;;;;5045806;28;20245;-72
2022/02/23 02:41:38;;;;;;;2.50;2.40;;;5.00;98.10;;;;;;5044285;28;20210;-72
2022/02/23 02:44:06;;;;;;;2.40;2.30;;;5.00;98.20;;;;;;5045937;28;20195;-71
2022/02/23 02:46:33;;;;;;;2.90;2.70;;;5.00;98.10;;;;;;5040694;28;20272;-72
2022/02/23 02:49:00;;;;;;;2.30;2.20;;;5.00;97.70;;;;;;5044060;28;20190;-73
2022/02/23 02:51:28;;;;;;;2.53;2.42;;;5.10;97.50;;;;;;5047114;28;20230;-72
2022/02/23 02:53:55;;;;;;;3.03;2.83;;;5.10;97.50;;;;;;5046534;28;20199;-73
2022/02/23 02:56:23;;;;;;;3.03;2.83;;;5.00;97.70;;;;;;5045180;28;20234;-72
2022/02/23 02:58:53;;;;;;;2.92;2.70;;;5.00;97.80;;;;;;5045788;28;20215;-72
2022/02/23 03:01:21;;;;;;;2.75;2.55;;;4.90;97.90;;;;;;5040935;28;20310;-72
2022/02/23 03:03:48;;;;;;;2.50;2.30;;;4.90;98.00;;;;;;5041976;28;20210;-72
2022/02/23 03:06:16;;;;;;;2.90;2.70;;;4.80;98.30;;;;;;5044601;28;20285;-72
2022/02/23 03:08:43;;;;;;;3.05;2.85;;;4.80;98.40;;;;;;5046464;28;20210;-72
2022/02/23 03:11:10;;;;;;;3.35;3.10;;;4.80;98.30;;;;;;5046060;28;20218;-73
2022/02/23 03:13:39;;;;;;;2.83;2.63;;;4.80;98.50;;;;;;5043369;28;20191;-73
2022/02/23 03:16:07;;;;;;;3.25;2.95;;;4.80;98.70;;;;;;5045995;28;20645;-71
2022/02/23 03:18:34;;;;;;;3.85;3.58;;;4.80;98.80;;;;;;5043682;28;20311;-72
2022/02/23 03:21:02;;;;;;;3.70;3.15;;;4.80;98.60;;;;;;5043321;28;20657;-71
2022/02/23 03:23:29;;;;;;;3.10;2.90;;;4.80;98.80;;;;;;5044141;28;20541;-72
2022/02/23 03:25:56;;;;;;;3.20;3.00;;;4.80;98.40;;;;;;5042625;28;20638;-72
2022/02/23 03:28:23;;;;;;;3.10;2.90;;;4.90;98.80;;;;;;5045072;28;20238;-72
2022/02/23 03:30:52;;;;;;;3.05;2.95;;;4.90;98.80;;;;;;5040124;28;20213;-72
2022/02/23 03:33:19;;;;;;;3.40;3.13;;;4.80;98.70;;;;;;5043367;28;20917;-72
2022/02/23 03:35:47;;;;;;;3.47;3.28;;;4.80;98.90;;;;;;5045732;28;20597;-71
2022/02/23 03:38:15;;;;;;;4.25;3.20;;;4.80;99.10;;;;;;5043998;28;20223;-72
2022/02/23 03:40:43;;;;;;;3.63;3.03;;;4.80;99.10;;;;;;5042258;28;20206;-72
2022/02/23 03:43:12;;;;;;;3.30;3.00;;;4.80;99.10;;;;;;5046840;28;20238;-71
2022/02/23 03:45:40;;;;;;;3.78;3.40;;;4.80;99.10;;;;;;5045661;28;20221;-72
2022/02/23 03:48:08;;;;;;;2.70;2.50;;;4.80;99.10;;;;;;5044343;28;20250;-72
2022/02/23 03:50:35;;;;;;;3.28;2.97;;;4.80;98.90;;;;;;5043704;28;20663;-72
2022/02/23 03:53:02;;;;;;;3.00;2.80;;;4.80;98.90;;;;;;5043815;28;20471;-72
2022/02/23 03:55:30;;;;;;;3.00;2.80;;;4.70;99.00;;;;;;5046106;28;20422;-71
2022/02/23 03:57:57;;;;;;;2.88;2.65;;;4.60;99.40;;;;;;5043698;28;20554;-72
2022/02/23 04:00:24;;;;;;;4.57;3.63;;;4.50;99.70;;;;;;5042058;28;20705;-72
2022/02/23 04:02:51;;;;;;;2.67;2.47;;;4.40;99.80;;;;;;5044718;28;20227;-71
2022/02/23 04:05:19;;;;;;;3.05;2.85;;;4.40;99.70;;;;;;5042119;28;20226;-72
2022/02/23 04:07:47;;;;;;;3.72;3.42;;;4.40;99.60;;;;;;5044044;28;20285;-72
2022/02/23 04:10:19;;;;;;;3.40;3.20;;;4.40;99.80;;;;;;5044237;28;20203;-72
2022/02/23 04:12:46;;;;;;;3.33;3.05;;;4.40;99.90;;;;;;5044039;28;20276;-71
2022/02/23 04:15:13;;;;;;;3.40;3.20;;;4.40;99.70;;;;;;5046358;28;20219;-71
2022/02/23 04:17:40;;;;;;;2.80;2.70;;;4.40;99.60;;;;;;5046653;28;20730;-72
2022/02/23 04:20:08;;;;;;;2.90;2.70;;;4.40;99.60;;;;;;5043413;28;20215;-72
2022/02/23 04:22:39;;;;;;;2.97;2.78;;;4.50;99.90;;;;;;5044162;28;20221;-71
2022/02/23 04:27:41;;;;;;;3.33;3.13;;;4.50;99.90;;;;;;5133949;23;20216;-77
2022/02/23 04:30:09;;;;;;;3.00;2.80;;;4.40;99.90;;;;;;5058728;28;20194;-75
2022/02/23 04:32:37;;;;;;;2.92;2.72;;;4.40;99.90;;;;;;5060836;28;20696;-78
2022/02/23 04:35:04;;;;;;;2.75;2.65;;;4.40;99.90;;;;;;5064083;28;20623;-80
2022/02/23 04:37:31;;;;;;;2.58;2.47;;;4.40;99.90;;;;;;5062780;28;20567;-75
2022/02/23 04:40:00;;;;;;;2.47;2.38;;;4.40;99.90;;;;;;5059047;28;20364;-79
2022/02/23 04:42:27;;;;;;;3.00;2.80;;;4.40;99.90;;;;;;5063525;28;20214;-75
2022/02/23 04:45:00;;;;;;;2.47;2.38;;;4.40;99.90;;;;;;5062474;28;20255;-77
2022/02/23 04:47:28;;;;;;;2.45;2.25;;;4.40;99.90;;;;;;5065000;28;20330;-77
2022/02/23 04:49:55;;;;;;;2.58;2.47;;;4.30;99.90;;;;;;5060574;28;20660;-77
2022/02/23 04:52:24;;;;;;;2.50;2.40;;;4.30;99.90;;;;;;5057440;28;20214;-78
2022/02/23 04:54:53;;;;;;;2.38;2.28;;;4.30;99.90;;;;;;5065863;28;20981;-76
2022/02/23 04:57:22;;;;;;;2.20;2.10;;;4.30;99.90;;;;;;5063310;28;20236;-76
2022/02/23 04:59:50;;;;;;;2.67;2.55;;;4.30;99.90;;;;;;5061731;28;20218;-78
2022/02/23 05:02:17;;;;;;;2.70;2.60;;;4.30;99.90;;;;;;5058090;28;21565;-74
2022/02/23 05:04:44;;;;;;;2.70;2.50;;;4.20;99.90;;;;;;5064707;28;20577;-78
2022/02/23 05:07:11;;;;;;;3.33;3.13;;;4.20;99.90;;;;;;5060951;28;20284;-75
2022/02/23 05:09:38;;;;;;;3.67;3.38;;;4.20;99.90;;;;;;5061151;28;20187;-76
2022/02/23 05:12:07;;;;;;;4.05;3.70;;;4.10;99.90;;;;;;5059985;28;20226;-75
2022/02/23 05:14:36;;;;;;;4.03;3.63;;;4.10;99.90;;;;;;5066553;28;20209;-76
2022/02/23 05:17:04;;;;;;;3.60;3.30;;;4.10;99.90;;;;;;5065213;28;20271;-76
2022/02/23 05:19:31;;;;;;;3.05;2.85;;;4.10;99.90;;;;;;5060226;28;20225;-75
2022/02/23 05:21:59;;;;;;;3.53;3.25;;;4.20;99.90;;;;;;5060145;28;20222;-77
2022/02/23 05:24:28;;;;;;;2.85;2.65;;;4.20;99.90;;;;;;5060698;28;20607;-77
2022/02/23 05:26:55;;;;;;;2.70;2.53;;;4.20;99.90;;;;;;5061948;28;20222;-75
2022/02/23 05:29:22;;;;;;;2.97;2.78;;;4.10;99.90;;;;;;5059167;28;20194;-75
2022/02/23 05:31:51;;;;;;;3.08;2.88;;;4.10;99.90;;;;;;5057335;28;20225;-76
2022/02/23 05:34:18;;;;;;;2.63;2.42;;;4.10;99.90;;;;;;5059121;28;20198;-77
2022/02/23 05:36:46;;;;;;;2.60;2.47;;;4.10;99.90;;;;;;5063269;28;20225;-80
2022/02/23 05:39:13;;;;;;;2.83;2.72;;;4.10;99.90;;;;;;5059577;28;20293;-77
2022/02/23 05:41:40;;;;;;;2.72;2.63;;;4.00;99.90;;;;;;5063352;28;20209;-75
2022/02/23 05:44:07;;;;;;;2.92;2.80;;;4.00;99.90;;;;;;5056624;28;20207;-77
2022/02/23 05:46:35;;;;;;;2.83;2.63;;;3.90;99.90;;;;;;5059839;28;20223;-79
2022/02/23 05:49:03;;;;;;;2.70;2.60;;;3.90;99.90;;;;;;5065489;28;20197;-76
2022/02/23 05:51:33;;;;;;;3.78;3.50;;;3.80;99.90;;;;;;5062353;28;20255;-75
2022/02/23 05:54:00;;;;;;;3.60;3.30;;;3.80;99.90;;;;;;5068385;28;20194;-75
2022/02/23 05:56:27;;;;;;;4.10;3.90;;;3.70;99.90;;;;;;5060002;28;20221;-74
2022/02/23 05:58:55;;;;;;;4.93;4.53;;;3.70;99.90;;;;;;5059203;28;20252;-74
2022/02/23 06:01:22;;;;;;;4.18;3.83;;;3.70;99.90;;;;;;5059421;28;20202;-80
2022/02/23 06:03:49;;;;;;;4.38;4.07;;;3.70;99.90;;;;;;5061441;28;20314;-75
2022/02/23 06:06:18;;;;;;;4.60;4.00;;;3.70;99.90;;;;;;5060305;28;20222;-75
2022/02/23 06:08:45;;;;;;;4.10;3.80;;;3.80;99.90;;;;;;5057221;28;20226;-79
2022/02/23 06:11:13;;;;;;;4.22;3.92;;;3.80;99.90;;;;;;5060115;28;20190;-74
2022/02/23 06:13:41;;;;;;;3.80;3.40;;;3.80;99.90;;;;;;5057853;28;20222;-76
2022/02/23 06:16:08;;;;;;;4.13;3.83;;;3.90;99.90;;;;;;5062199;28;20217;-77
2022/02/23 06:18:35;;;;;;;4.03;3.63;;;3.90;99.90;;;;;;5062156;28;20211;-75
2022/02/23 06:21:02;;;;;;;3.70;3.40;;;3.90;99.90;;;;;;5061533;28;20224;-76
2022/02/23 06:23:32;;;;;;;3.90;3.67;;;3.90;99.90;;;;;;5063904;28;20226;-80
2022/02/23 06:25:59;;;;;;;3.70;3.50;;;3.90;99.90;;;;;;5056643;28;20232;-74
2022/02/23 06:28:27;;;;;;;3.03;2.83;;;3.90;99.90;;;;;;5066026;28;20222;-76
2022/02/23 06:30:54;;;;;;;4.82;4.45;;;3.90;99.90;;;;;;5060371;28;20191;-77
2022/02/23 06:33:23;;;;;;;5.30;4.88;;;4.00;99.90;;;;;;5062229;28;20218;-79
2022/02/23 06:35:51;;;;;;;8.27;7.45;;;4.00;99.90;;;;;;5063332;28;20217;-76
2022/02/23 06:38:18;;;;;;;11.30;9.27;;;4.00;99.90;;;;;;5058207;28;20233;-76
2022/02/23 06:40:47;;;;;;;12.13;10.88;;;4.00;99.90;;;;;;5056649;28;20564;-74
2022/02/23 06:43:15;;;;;;;10.30;9.30;;;4.00;99.90;;;;;;5061500;28;20222;-75
2022/02/23 06:45:46;;;;;;;8.60;7.80;;;4.00;99.90;;;;;;5070379;28;20278;-79
2022/02/23 06:48:13;;;;;;;7.30;6.70;;;4.00;99.90;;;;;;5060884;28;20214;-77
2022/02/23 06:50:40;;;;;;;6.05;5.38;;;4.00;99.90;;;;;;5058831;28;20194;-80
2022/02/23 06:53:08;;;;;;;6.05;5.53;;;4.00;99.90;;;;;;5055196;28;20226;-76
2022/02/23 06:55:35;;;;;;;4.50;4.18;;;4.00;99.90;;;;;;5068395;28;20195;-75
2022/02/23 06:58:04;;;;;;;4.60;4.30;;;4.00;99.90;;;;;;5058273;28;20567;-76
2022/02/23 07:00:31;;;;;;;4.78;4.18;;;4.00;99.90;;;;;;5063065;28;20218;-76
2022/02/23 07:02:58;;;;;;;4.10;3.80;;;4.00;99.90;;;;;;5056082;28;20226;-76
2022/02/23 07:05:25;;;;;;;3.17;2.97;;;4.00;99.90;;;;;;5061462;28;20198;-73
2022/02/23 07:07:52;;;;;;;3.90;3.70;;;4.00;99.90;;;;;;5057940;28;20222;-76
2022/02/23 07:10:23;;;;;;;2.97;2.88;;;4.00;99.90;;;;;;5058415;28;20251;-78
2022/02/23 07:12:52;;;;;;;3.63;3.33;;;4.00;99.90;;;;;;5061563;28;20386;-75
2022/02/23 07:15:22;;;;;;;3.67;3.38;;;4.10;99.90;;;;;;5067270;28;20203;-75
2022/02/23 07:17:50;;;;;;;3.42;3.22;;;4.10;99.90;;;;;;5063250;28;20225;-77
2022/02/23 07:20:17;;;;;;;3.65;3.35;;;4.00;99.90;;;;;;5054851;28;20219;-75
2022/02/23 07:22:45;;;;;;;3.95;3.65;;;4.10;99.90;;;;;;5061900;28;20218;-77
2022/02/23 07:25:13;;;;;;;4.68;4.28;;;4.70;99.90;;;;;;5065201;28;20195;-75
2022/02/23 07:27:41;;;;;;;4.40;4.10;;;5.80;99.90;;;;;;5068224;28;20226;-75
2022/02/23 07:30:10;;;;;;;4.20;3.85;;;7.00;99.90;;;;;;5063384;28;20190;-77
2022/02/23 07:32:39;;;;;;;3.67;3.38;;;7.90;99.90;;;;;;5064099;28;20214;-79
2022/02/23 07:35:10;;;;;;;3.40;3.20;;;8.80;99.90;;;;;;5062043;28;20433;-75
2022/02/23 07:37:38;;;;;;;3.50;3.20;;;9.40;99.60;;;;;;5066487;28;20231;-77
2022/02/23 07:40:10;;;;;;;2.55;2.35;;;9.70;99.10;;;;;;5074852;28;20237;-76
2022/02/23 07:42:38;;;;;;;3.35;3.05;;;10.00;98.70;;;;;;5066205;28;20225;-78
2022/02/23 07:45:06;;;;;;;3.22;3.03;;;10.20;97.60;;;;;;5079612;28;20202;-81
2022/02/23 07:47:33;;;;;;;3.70;3.25;;;10.30;97.70;;;;;;5063658;28;20629;-79
2022/02/23 07:50:02;;;;;;;3.35;3.15;;;10.60;98.20;;;;;;5062622;28;20198;-77
2022/02/23 07:52:30;;;;;;;3.40;3.10;;;10.60;98.10;;;;;;5059763;28;20222;-76
2022/02/23 07:54:57;;;;;;;3.00;2.78;;;10.70;97.90;;;;;;5059331;28;20683;-78
2022/02/23 07:57:24;;;;;;;2.95;2.70;;;11.30;97.70;;;;;;5057543;28;20538;-78
2022/02/23 07:59:51;;;;;;;2.95;2.75;;;11.60;96.10;;;;;;5060822;28;20730;-78
2022/02/23 08:02:20;;;;;;;3.13;2.90;;;11.90;95.40;;;;;;5065447;28;20222;-78
2022/02/23 08:04:51;;;;;;;2.58;2.38;;;12.00;94.90;;;;;;5067401;28;20199;-74
2022/02/23 08:07:21;;;;;;;2.90;2.70;;;12.40;94.80;;;;;;5061924;28;20662;-75
2022/02/23 08:09:48;;;;;;;3.03;2.80;;;12.50;95.00;;;;;;5059699;28;20295;-79
2022/02/23 08:12:16;;;;;;;3.10;2.90;;;12.70;95.50;;;;;;5059433;28;20198;-76
2022/02/23 08:14:44;;;;;;;2.92;2.72;;;12.90;95.40;;;;;;5056589;28;20816;-80
2022/02/23 08:19:55;;;;;;;2.88;2.65;;;13.40;94.90;;;;;;5057114;28;20328;-77
2022/02/23 08:22:28;;;;;;;2.60;2.40;;;13.80;94.30;;;;;;5055948;28;20655;-80
2022/02/23 08:24:56;;;;;;;2.45;2.30;;;14.10;93.20;;;;;;5063616;28;20234;-75
2022/02/23 08:27:25;;;;;;;2.40;2.20;;;14.30;92.90;;;;;;5065375;28;20287;-78
2022/02/23 08:29:53;;;;;;;2.92;2.72;;;14.40;92.00;;;;;;5066213;28;20202;-77
2022/02/23 08:32:22;;;;;;;3.05;2.50;;;14.40;91.00;;;;;;5074741;28;20240;-77
2022/02/23 08:34:52;;;;;;;2.50;2.30;;;14.60;91.20;;;;;;5066196;28;20198;-79
2022/02/23 08:37:20;;;;;;;2.58;2.38;;;14.30;91.90;;;;;;5068988;28;20214;-86
2022/02/23 08:39:51;;;;;;;2.65;2.45;;;14.20;91.90;;;;;;5068439;28;20202;-77
2022/02/23 08:42:18;;;;;;;2.20;2.10;;;14.20;92.00;;;;;;5064613;28;20197;-78
2022/02/23 08:44:46;;;;;;;2.80;2.60;;;14.50;91.00;;;;;;5067027;28;20202;-77
2022/02/23 08:47:13;;;;;;;3.17;2.30;;;14.40;91.10;;;;;;5073741;28;20222;-76
2022/02/23 08:49:40;;;;;;;2.42;2.22;;;14.50;91.60;;;;;;5071200;28;20320;-78
2022/02/23 08:52:09;;;;;;;2.80;2.60;;;14.80;91.40;;;;;;5070767;28;20194;-75
2022/02/23 08:54:36;;;;;;;2.97;2.50;;;15.00;91.00;;;;;;5073093;28;20309;-76
2022/02/23 08:57:05;;;;;;;2.60;2.40;;;15.10;90.60;;;;;;5066882;28;20223;-79
2022/02/23 08:59:34;;;;;;;2.50;2.28;;;15.10;90.60;;;;;;5065766;28;20230;-75
2022/02/23 09:02:01;;;;;;;3.10;2.80;;;15.30;90.60;;;;;;5061409;28;20633;-76
2022/02/23 09:04:28;;;;;;;2.90;2.70;;;15.40;90.70;;;;;;5066409;28;20229;-78
2022/02/23 09:06:56;;;;;;;2.75;2.53;;;15.40;90.70;;;;;;5063391;28;20214;-78
2022/02/23 09:09:23;;;;;;;2.90;2.70;;;15.40;90.50;;;;;;5062490;28;20229;-80
2022/02/23 09:11:50;;;;;;;2.88;2.30;;;15.30;90.50;;;;;;5060398;28;20189;-79
2022/02/23 09:14:19;;;;;;;3.20;2.80;;;15.00;90.70;;;;;;5063696;28;20218;-78
2022/02/23 09:16:46;;;;;;;2.30;2.10;;;15.10;90.80;;;;;;5062001;28;20283;-77
2022/02/23 09:19:13;;;;;;;3.15;2.42;;;15.40;90.50;;;;;;5059276;28;20467;-80
2022/02/23 09:21:41;;;;;;;3.17;2.50;;;15.30;90.00;;;;;;5057037;28;20221;-78
2022/02/23 09:24:08;;;;;;;4.35;2.88;;;15.30;90.30;;;;;;5057850;28;20992;-77
2022/02/23 09:26:36;;;;;;;3.22;2.85;;;15.40;90.50;;;;;;5069875;28;20810;-76
2022/02/23 09:29:03;;;;;;;3.53;2.80;;;15.40;90.30;;;;;;5061414;28;20268;-78
2022/02/23 09:31:32;;;;;;;3.83;2.80;;;15.60;90.10;;;;;;5059253;28;20198;-79
2022/02/23 09:33:59;;;;;;;3.88;2.80;;;15.60;89.80;;;;;;5056645;28;20313;-78
2022/02/23 09:36:27;;;;;;;3.47;2.90;;;15.70;89.70;;;;;;5059316;28;20215;-77
2022/02/23 09:38:54;;;;;;;3.58;2.83;;;15.70;90.00;;;;;;5052098;28;20217;-80
2022/02/23 09:41:21;;;;;;;2.85;2.65;;;15.80;88.00;;;;;;5056401;28;20218;-82
2022/02/23 09:43:52;;;;;;;3.40;2.40;;;15.70;88.60;;;;;;5061477;28;20237;-79
2022/02/23 09:46:21;;;;;;;3.20;2.90;;;15.60;88.30;;;;;;5056065;28;20250;-76
2022/02/23 09:48:50;;;;;;;3.00;2.70;;;15.80;88.40;;;;;;5065749;28;20264;-78
2022/02/23 09:51:18;;;;;;;2.63;2.42;;;15.90;87.60;;;;;;5061349;28;20692;-81
2022/02/23 09:53:46;;;;;;;4.25;2.40;;;15.90;87.20;;;;;;5061588;28;20236;-82
2022/02/23 09:56:14;;;;;;;2.72;2.53;;;15.90;86.40;;;;;;5061422;28;20221;-77
2022/02/23 09:58:42;;;;;;;2.85;2.65;;;15.50;87.10;;;;;;5060252;28;20785;-78
2022/02/23 10:01:10;;;;;;;2.60;2.40;;;15.20;87.20;;;;;;5056444;28;20222;-85
2022/02/23 10:03:38;;;;;;;2.55;2.35;;;14.80;87.70;;;;;;5059123;28;20210;-79
2022/02/23 10:06:08;;;;;;;3.45;2.50;;;14.90;88.50;;;;;;5060711;28;20783;-81
2022/02/23 10:08:37;;;;;;;2.72;2.53;;;14.80;88.70;;;;;;5057191;28;20291;-79
2022/02/23 10:11:05;;;;;;;3.13;2.80;;;15.20;88.80;;;;;;5055621;28;20658;-81
2022/02/23 10:13:32;;;;;;;2.67;2.47;;;15.40;87.50;;;;;;5058489;28;20630;-79
2022/02/23 10:16:00;;;;;;;2.50;2.30;;;15.80;87.10;;;;;;5062638;28;20214;-79
2022/02/23 10:18:30;;;;;;;2.30;2.08;;;15.90;87.10;;;;;;5060107;28;20820;-79
2022/02/23 10:20:57;;;;;;;2.35;2.10;;;15.80;84.60;;;;;;5069451;28;20265;-78
2022/02/23 10:23:29;;;;;;;3.15;2.30;;;15.90;85.20;;;;;;5061925;28;20716;-84
2022/02/23 10:28:41;;;;;;;2.53;2.33;;;16.40;83.40;;;;;;4985050;28;20228;-76
2022/02/23 10:31:10;;;;;;;4.18;2.28;;;16.00;84.10;;;;;;4987856;28;20358;-76
2022/02/23 10:33:39;;;;;;;2.30;2.00;;;15.70;84.00;;;;;;4987307;28;20221;-77
2022/02/23 10:36:08;;;;;;;2.70;2.50;;;15.80;84.90;;;;;;4986748;28;20197;-76
2022/02/23 10:38:39;;;;;;;2.15;2.00;;;16.30;83.80;;;;;;4974663;28;20646;-76
2022/02/23 10:41:08;;;;;;;3.72;1.90;;;16.30;81.90;;;;;;4978899;28;20586;-75
2022/02/23 10:43:40;;;;;;;2.85;2.17;;;16.30;82.40;;;;;;4973917;28;20228;-76
2022/02/23 10:46:10;;;;;;;2.22;2.03;;;16.50;81.70;;;;;;4977518;28;20630;-76
2022/02/23 10:48:39;;;;;;;1.92;1.80;;;16.40;82.40;;;;;;4983032;28;20232;-76
2022/02/23 10:51:08;;;;;;;2.17;1.77;;;16.50;82.80;;;;;;4985430;28;20197;-78
2022/02/23 10:53:37;;;;;;;1.88;1.70;;;16.60;82.20;;;;;;4978540;28;20217;-74
2022/02/23 10:56:20;;;;;;;1.80;1.70;;;16.50;81.20;;;;;;4985253;28;20196;-78
2022/02/23 10:58:47;;;;;;;2.40;2.20;;;16.40;81.70;;;;;;4989631;28;20579;-77
2022/02/23 11:01:15;;;;;;;2.75;2.38;;;16.60;83.40;;;;;;4980158;28;20485;-77
2022/02/23 11:03:46;;;;;;;3.10;1.70;;;16.90;82.20;;;;;;4983335;28;21638;-77
2022/02/23 11:06:13;;;;;;;2.05;1.88;;;16.60;81.90;;;;;;4972533;28;20209;-76
2022/02/23 11:08:42;;;;;;;2.55;2.20;;;16.80;82.50;;;;;;4980355;28;20221;-76
2022/02/23 11:11:09;;;;;;;2.03;1.83;;;16.80;82.40;;;;;;4980270;28;20200;-77
2022/02/23 11:13:36;;;;;;;2.60;1.88;;;17.00;82.00;;;;;;4990945;28;20299;-78
2022/02/23 11:16:04;;;;;;;2.17;1.98;;;17.00;82.10;;;;;;4979975;28;20503;-78
2022/02/23 11:18:32;;;;;;;3.13;1.90;;;17.10;80.70;;;;;;4981757;28;20384;-78
2022/02/23 11:21:00;;;;;;;1.83;1.70;;;17.10;81.70;;;;;;4978253;28;20243;-77
2022/02/23 11:23:28;;;;;;;3.97;1.90;;;17.10;81.60;;;;;;4977162;28;20759;-77
2022/02/23 11:25:57;;;;;;;1.83;1.73;;;17.20;81.20;;;;;;4982689;28;20201;-76
2022/02/23 11:28:27;;;;;;;2.00;1.65;;;17.10;80.90;;;;;;4983330;28;20308;-75
2022/02/23 11:30:57;;;;;;;1.75;1.65;;;16.90;81.60;;;;;;4981588;28;20237;-77
2022/02/23 11:33:53;;;;;;;2.20;2.00;;;17.00;81.50;;;;;;4980394;28;20383;-77
2022/02/23 11:36:22;;;;;;;2.17;1.80;;;17.20;82.30;;;;;;4980227;28;20205;-78
2022/02/23 11:38:49;;;;;;;1.77;1.65;;;17.60;83.00;;;;;;4983529;28;20245;-75
2022/02/23 11:41:25;;;;;;;2.80;1.80;;;17.70;82.00;;;;;;4978523;28;20227;-75
2022/02/23 11:44:03;;;;;;;1.98;1.83;;;18.10;81.30;;;;;;4982511;28;20246;-76
2022/02/23 11:46:31;;;;;;;1.95;1.83;;;18.20;82.40;;;;;;4975354;28;20224;-77
2022/02/23 11:49:13;;;;;;;1.80;1.60;;;18.20;81.30;;;;;;4986373;28;20217;-75
2022/02/23 11:51:41;;;;;;;2.03;1.60;;;18.20;78.50;;;;;;4994047;28;20246;-76
2022/02/23 11:54:09;;;;;;;2.53;1.63;;;17.90;80.10;;;;;;4986895;28;20316;-78
2022/02/23 11:56:49;;;;;;;1.92;1.70;;;17.60;80.50;;;;;;5006025;28;20245;-76
2022/02/23 11:59:46;;;;;;;2.97;1.70;;;17.60;80.70;;;;;;4989080;28;20212;-77
2022/02/23 12:02:15;;;;;;;3.38;1.73;;;17.60;79.80;;;;;;4994060;28;20441;-77
2022/02/23 12:04:49;;;;;;;2.20;1.52;;;17.50;80.50;;;;;;4989424;28;20217;-77
2022/02/23 12:07:17;;;;;;;1.55;1.45;;;17.50;79.30;;;;;;4996549;28;20224;-75
2022/02/23 12:10:07;;;;;;;1.77;1.67;;;17.50;79.80;;;;;;4983820;28;20217;-77
2022/02/23 12:12:37;;;;;;;1.77;1.40;;;17.60;79.20;;;;;;4988918;28;20197;-75
2022/02/23 12:15:06;;;;;;;1.65;1.55;;;17.70;79.20;;;;;;4990415;28;20476;-77
2022/02/23 12:17:54;;;;;;;1.40;1.25;;;17.80;79.60;;;;;;4994698;28;20676;-75
2022/02/23 12:20:50;;;;;;;3.10;1.48;;;17.60;78.60;;;;;;4980676;28;20284;-75
2022/02/23 12:23:42;;;;;;;2.30;1.50;;;17.30;79.50;;;;;;4979789;28;20679;-75
2022/02/23 12:26:28;;;;;;;1.95;1.30;;;17.30;78.20;;;;;;4995729;28;20201;-76
2022/02/23 12:28:58;;;;;;;1.70;1.60;;;17.10;80.70;;;;;;4981980;28;20882;-77
2022/02/23 12:31:29;;;;;;;1.58;1.48;;;17.00;81.60;;;;;;4993575;28;20197;-78
2022/02/23 12:33:59;;;;;;;1.35;1.20;;;17.30;81.20;;;;;;4988668;28;20215;-78
2022/02/23 12:36:46;;;;;;;1.48;1.38;;;17.60;81.60;;;;;;4981836;28;20451;-76
2022/02/23 12:39:18;;;;;;;2.10;1.20;;;18.00;79.80;;;;;;4987562;28;20228;-78
2022/02/23 12:41:47;;;;;;;1.90;1.38;;;18.40;81.20;;;;;;4981419;28;20660;-78
2022/02/23 12:44:19;;;;;;;1.88;1.77;;;18.60;81.30;;;;;;4978707;28;20235;-74
2022/02/23 12:46:48;;;;;;;2.72;1.73;;;18.90;81.80;;;;;;4978091;28;20813;-77
2022/02/23 12:49:16;;;;;;;2.28;1.73;;;19.10;80.20;;;;;;4972275;28;20229;-77
2022/02/23 12:51:44;;;;;;;1.60;1.50;;;19.00;79.10;;;;;;4984452;28;20194;-77
2022/02/23 12:54:13;;;;;;;4.10;1.73;;;18.50;79.00;;;;;;4983153;28;20945;-77
2022/02/23 12:56:42;;;;;;;1.75;1.65;;;17.90;79.70;;;;;;4979969;28;20235;-76
2022/02/23 12:59:11;;;;;;;1.77;1.30;;;17.50;81.10;;;;;;4981689;28;20301;-78
2022/02/23 13:01:41;;;;;;;1.50;1.40;;;17.60;82.80;;;;;;4986017;28;20227;-76
2022/02/23 13:04:10;;;;;;;1.73;1.63;;;17.80;83.00;;;;;;4988328;28;20320;-75
2022/02/23 13:06:38;;;;;;;1.50;1.40;;;18.20;82.70;;;;;;4987579;28;20224;-76
2022/02/23 13:09:08;;;;;;;1.88;1.60;;;18.60;81.70;;;;;;4989047;28;21034;-76